sensor_id;sensor_type;location;lat;lon;timestamp;temperature;humidity
29571;DHT22;16814;52.118;11.436;2023-04-06T00:00:51;1.60;99.90
29571;DHT22;16814;52.118;11.436;2023-04-06T00:03:18;1.50;99.90
29571;DHT22;16814;52.118;11.436;2023-04-06T00:05:44;1.50;99.90
29571;DHT22;16814;52.118;11.436;2023-04-06T00:08:10;1.50;99.90
29571;DHT22;16814;52.118;11.436;2023-04-06T00:10:36;1.70;99.90
29571;DHT22;16814;52.118;11.436;2023-04-06T00:13:01;1.70;99.90
29571;DHT22;16814;52.118;11.436;2023-04-06T00:15:27;1.70;99.90
29571;DHT22;16814;52.118;11.436;2023-04-06T00:17:55;1.60;99.90
29571;DHT22;16814;52.118;11.436;2023-04-06T00:20:20;1.60;99.90
29571;DHT22;16814;52.118;11.436;2023-04-06T00:22:46;1.40;99.90
29571;DHT22;16814;52.118;11.436;2023-04-06T00:25:12;1.40;99.90
29571;DHT22;16814;52.118;11.436;2023-04-06T00:27:38;1.60;99.90
29571;DHT22;16814;52.118;11.436;2023-04-06T00:30:04;1.70;99.90
29571;DHT22;16814;52.118;11.436;2023-04-06T00:32:30;1.70;99.90
29571;DHT22;16814;52.118;11.436;2023-04-06T00:34:56;1.70;99.90
29571;DHT22;16814;52.118;11.436;2023-04-06T00:37:22;1.70;99.90
29571;DHT22;16814;52.118;11.436;2023-04-06T00:39:47;1.50;99.90
29571;DHT22;16814;52.118;11.436;2023-04-06T00:42:14;1.40;99.90
29571;DHT22;16814;52.118;11.436;2023-04-06T00:44:40;1.30;99.90
29571;DHT22;16814;52.118;11.436;2023-04-06T00:47:07;1.20;99.90
29571;DHT22;16814;52.118;11.436;2023-04-06T00:49:33;1.40;99.90
29571;DHT22;16814;52.118;11.436;2023-04-06T00:51:59;1.40;99.90
29571;DHT22;16814;52.118;11.436;2023-04-06T00:54:25;1.40;99.90
29571;DHT22;16814;52.118;11.436;2023-04-06T00:56:51;1.60;99.90
29571;DHT22;16814;52.118;11.436;2023-04-06T00:59:16;1.60;99.90
29571;DHT22;16814;52.118;11.436;2023-04-06T01:01:42;1.60;99.90
29571;DHT22;16814;52.118;11.436;2023-04-06T01:04:08;1.60;99.90
29571;DHT22;16814;52.118;11.436;2023-04-06T01:06:33;1.50;99.90
29571;DHT22;16814;52.118;11.436;2023-04-06T01:08:59;1.70;99.90
29571;DHT22;16814;52.118;11.436;2023-04-06T01:11:25;1.40;99.90
29571;DHT22;16814;52.118;11.436;2023-04-06T01:13:51;1.40;99.90
29571;DHT22;16814;52.118;11.436;2023-04-06T01:16:17;1.40;99.90
29571;DHT22;16814;52.118;11.436;2023-04-06T01:18:43;1.30;99.90
29571;DHT22;16814;52.118;11.436;2023-04-06T01:21:09;1.30;99.90
29571;DHT22;16814;52.118;11.436;2023-04-06T01:23:49;1.20;99.90
29571;DHT22;16814;52.118;11.436;2023-04-06T01:26:15;1.10;99.90
29571;DHT22;16814;52.118;11.436;2023-04-06T01:28:40;1.10;99.90
29571;DHT22;16814;52.118;11.436;2023-04-06T01:31:07;1.00;99.90
29571;DHT22;16814;52.118;11.436;2023-04-06T01:33:33;0.90;99.90
29571;DHT22;16814;52.118;11.436;2023-04-06T01:35:59;0.80;99.90
29571;DHT22;16814;52.118;11.436;2023-04-06T01:38:25;0.80;99.90
29571;DHT22;16814;52.118;11.436;2023-04-06T01:40:52;0.80;99.90
29571;DHT22;16814;52.118;11.436;2023-04-06T01:43:18;0.70;99.90
29571;DHT22;16814;52.118;11.436;2023-04-06T01:45:44;0.60;99.90
29571;DHT22;16814;52.118;11.436;2023-04-06T01:48:09;0.70;99.90
29571;DHT22;16814;52.118;11.436;2023-04-06T01:50:35;0.80;99.90
29571;DHT22;16814;52.118;11.436;2023-04-06T01:53:01;0.60;99.90
29571;DHT22;16814;52.118;11.436;2023-04-06T01:55:27;0.70;99.90
29571;DHT22;16814;52.118;11.436;2023-04-06T01:57:56;0.70;99.90
29571;DHT22;16814;52.118;11.436;2023-04-06T02:00:21;0.70;99.90
29571;DHT22;16814;52.118;11.436;2023-04-06T02:02:47;0.60;99.90
29571;DHT22;16814;52.118;11.436;2023-04-06T02:05:13;0.60;99.90
29571;DHT22;16814;52.118;11.436;2023-04-06T02:07:38;0.60;99.90
29571;DHT22;16814;52.118;11.436;2023-04-06T02:10:04;0.50;99.90
29571;DHT22;16814;52.118;11.436;2023-04-06T02:12:36;0.50;99.90
29571;DHT22;16814;52.118;11.436;2023-04-06T02:15:01;0.30;99.90
29571;DHT22;16814;52.118;11.436;2023-04-06T02:17:27;0.30;99.90
29571;DHT22;16814;52.118;11.436;2023-04-06T02:19:52;0.20;99.90
29571;DHT22;16814;52.118;11.436;2023-04-06T02:22:18;0.10;99.90
29571;DHT22;16814;52.118;11.436;2023-04-06T02:24:43;0.20;99.90
29571;DHT22;16814;52.118;11.436;2023-04-06T02:27:09;0.10;99.90
29571;DHT22;16814;52.118;11.436;2023-04-06T02:29:35;0.10;99.90
29571;DHT22;16814;52.118;11.436;2023-04-06T02:32:01;0.10;99.90
29571;DHT22;16814;52.118;11.436;2023-04-06T02:34:26;0.20;99.90
29571;DHT22;16814;52.118;11.436;2023-04-06T02:36:52;0.30;99.90
29571;DHT22;16814;52.118;11.436;2023-04-06T02:39:17;0.40;99.90
29571;DHT22;16814;52.118;11.436;2023-04-06T02:41:43;0.60;99.90
29571;DHT22;16814;52.118;11.436;2023-04-06T02:44:08;0.70;99.90
29571;DHT22;16814;52.118;11.436;2023-04-06T02:46:34;0.70;99.90
29571;DHT22;16814;52.118;11.436;2023-04-06T02:49:00;0.70;99.90
29571;DHT22;16814;52.118;11.436;2023-04-06T02:51:26;0.70;99.90
29571;DHT22;16814;52.118;11.436;2023-04-06T02:53:52;0.70;99.90
29571;DHT22;16814;52.118;11.436;2023-04-06T02:56:18;0.70;99.90
29571;DHT22;16814;52.118;11.436;2023-04-06T02:58:47;0.60;99.90
29571;DHT22;16814;52.118;11.436;2023-04-06T03:01:12;0.70;99.90
29571;DHT22;16814;52.118;11.436;2023-04-06T03:03:38;0.80;99.90
29571;DHT22;16814;52.118;11.436;2023-04-06T03:06:04;0.90;99.90
29571;DHT22;16814;52.118;11.436;2023-04-06T03:08:29;0.90;99.90
29571;DHT22;16814;52.118;11.436;2023-04-06T03:10:55;0.60;99.90
29571;DHT22;16814;52.118;11.436;2023-04-06T03:13:21;0.40;99.90
29571;DHT22;16814;52.118;11.436;2023-04-06T03:15:46;0.20;99.90
29571;DHT22;16814;52.118;11.436;2023-04-06T03:18:12;0.10;99.90
29571;DHT22;16814;52.118;11.436;2023-04-06T03:20:38;0.00;99.90
29571;DHT22;16814;52.118;11.436;2023-04-06T03:23:03;-0.10;99.90
29571;DHT22;16814;52.118;11.436;2023-04-06T03:25:29;-0.20;99.90
29571;DHT22;16814;52.118;11.436;2023-04-06T03:27:55;-0.50;99.90
29571;DHT22;16814;52.118;11.436;2023-04-06T03:30:21;-0.40;99.90
29571;DHT22;16814;52.118;11.436;2023-04-06T03:32:47;-0.30;99.90
29571;DHT22;16814;52.118;11.436;2023-04-06T03:35:12;-0.20;99.90
29571;DHT22;16814;52.118;11.436;2023-04-06T03:37:38;-0.10;99.90
29571;DHT22;16814;52.118;11.436;2023-04-06T03:40:04;0.10;99.90
29571;DHT22;16814;52.118;11.436;2023-04-06T03:42:30;0.10;99.90
29571;DHT22;16814;52.118;11.436;2023-04-06T03:44:58;0.00;99.90
29571;DHT22;16814;52.118;11.436;2023-04-06T03:47:24;-0.10;99.90
29571;DHT22;16814;52.118;11.436;2023-04-06T03:49:49;-0.10;99.90
29571;DHT22;16814;52.118;11.436;2023-04-06T03:52:15;-0.20;99.90
29571;DHT22;16814;52.118;11.436;2023-04-06T03:54:40;-0.30;99.90
29571;DHT22;16814;52.118;11.436;2023-04-06T03:57:06;-0.30;99.90
29571;DHT22;16814;52.118;11.436;2023-04-06T03:59:32;-0.30;99.90
29571;DHT22;16814;52.118;11.436;2023-04-06T04:01:57;-0.30;99.90
29571;DHT22;16814;52.118;11.436;2023-04-06T04:04:23;-0.40;99.90
29571;DHT22;16814;52.118;11.436;2023-04-06T04:06:48;-0.40;99.90
29571;DHT22;16814;52.118;11.436;2023-04-06T04:09:14;-0.40;99.90
29571;DHT22;16814;52.118;11.436;2023-04-06T04:11:39;-0.50;99.90
29571;DHT22;16814;52.118;11.436;2023-04-06T04:14:05;-0.60;99.90
29571;DHT22;16814;52.118;11.436;2023-04-06T04:16:30;-0.50;99.90
29571;DHT22;16814;52.118;11.436;2023-04-06T04:18:56;-0.50;99.90
29571;DHT22;16814;52.118;11.436;2023-04-06T04:21:23;-0.40;99.90
29571;DHT22;16814;52.118;11.436;2023-04-06T04:23:49;-0.40;99.90
29571;DHT22;16814;52.118;11.436;2023-04-06T04:26:15;-0.40;99.90
29571;DHT22;16814;52.118;11.436;2023-04-06T04:28:40;-0.40;99.90
29571;DHT22;16814;52.118;11.436;2023-04-06T04:31:06;-0.40;99.90
29571;DHT22;16814;52.118;11.436;2023-04-06T04:33:31;-0.30;99.90
29571;DHT22;16814;52.118;11.436;2023-04-06T04:35:57;-0.30;99.90
29571;DHT22;16814;52.118;11.436;2023-04-06T04:38:22;-0.30;99.90
29571;DHT22;16814;52.118;11.436;2023-04-06T04:40:48;-0.40;99.90
29571;DHT22;16814;52.118;11.436;2023-04-06T04:43:13;-0.50;99.90
29571;DHT22;16814;52.118;11.436;2023-04-06T04:45:40;-0.60;99.90
29571;DHT22;16814;52.118;11.436;2023-04-06T04:48:05;-0.70;99.90
29571;DHT22;16814;52.118;11.436;2023-04-06T04:50:32;-0.70;99.90
29571;DHT22;16814;52.118;11.436;2023-04-06T04:52:57;-0.60;99.90
29571;DHT22;16814;52.118;11.436;2023-04-06T04:55:23;-0.50;99.90
29571;DHT22;16814;52.118;11.436;2023-04-06T04:57:48;-0.40;99.90
29571;DHT22;16814;52.118;11.436;2023-04-06T05:00:14;-0.30;99.90
29571;DHT22;16814;52.118;11.436;2023-04-06T05:02:40;-0.40;99.90
29571;DHT22;16814;52.118;11.436;2023-04-06T05:05:06;-0.50;99.90
29571;DHT22;16814;52.118;11.436;2023-04-06T05:07:32;-0.40;99.90
29571;DHT22;16814;52.118;11.436;2023-04-06T05:09:59;-0.10;99.90
29571;DHT22;16814;52.118;11.436;2023-04-06T05:12:25;0.60;99.90
29571;DHT22;16814;52.118;11.436;2023-04-06T05:14:52;1.30;99.90
29571;DHT22;16814;52.118;11.436;2023-04-06T05:17:18;1.90;99.90
29571;DHT22;16814;52.118;11.436;2023-04-06T05:19:44;2.50;99.90
29571;DHT22;16814;52.118;11.436;2023-04-06T05:22:09;2.90;99.90
29571;DHT22;16814;52.118;11.436;2023-04-06T05:24:35;3.40;99.90
29571;DHT22;16814;52.118;11.436;2023-04-06T05:27:00;3.80;99.90
29571;DHT22;16814;52.118;11.436;2023-04-06T05:29:26;4.00;99.90
29571;DHT22;16814;52.118;11.436;2023-04-06T05:31:51;4.10;99.90
29571;DHT22;16814;52.118;11.436;2023-04-06T05:34:17;4.20;99.90
29571;DHT22;16814;52.118;11.436;2023-04-06T05:36:43;4.30;99.90
29571;DHT22;16814;52.118;11.436;2023-04-06T05:39:08;4.40;99.90
29571;DHT22;16814;52.118;11.436;2023-04-06T05:41:35;4.30;99.90
29571;DHT22;16814;52.118;11.436;2023-04-06T05:44:01;4.20;99.90
29571;DHT22;16814;52.118;11.436;2023-04-06T05:46:26;4.00;99.90
29571;DHT22;16814;52.118;11.436;2023-04-06T05:48:52;3.70;99.90
29571;DHT22;16814;52.118;11.436;2023-04-06T05:51:17;3.70;99.90
29571;DHT22;16814;52.118;11.436;2023-04-06T05:53:43;3.60;99.90
29571;DHT22;16814;52.118;11.436;2023-04-06T05:56:08;3.60;99.90
29571;DHT22;16814;52.118;11.436;2023-04-06T05:58:34;3.70;99.90
29571;DHT22;16814;52.118;11.436;2023-04-06T06:01:00;3.90;99.90
29571;DHT22;16814;52.118;11.436;2023-04-06T06:03:26;3.80;99.90
29571;DHT22;16814;52.118;11.436;2023-04-06T06:05:59;3.90;99.90
29571;DHT22;16814;52.118;11.436;2023-04-06T06:08:25;4.00;99.90
29571;DHT22;16814;52.118;11.436;2023-04-06T06:10:51;4.30;99.90
29571;DHT22;16814;52.118;11.436;2023-04-06T06:13:19;4.90;99.90
29571;DHT22;16814;52.118;11.436;2023-04-06T06:15:45;5.40;99.90
29571;DHT22;16814;52.118;11.436;2023-04-06T06:18:10;6.20;99.90
29571;DHT22;16814;52.118;11.436;2023-04-06T06:20:36;6.50;99.90
29571;DHT22;16814;52.118;11.436;2023-04-06T06:23:02;6.60;99.90
29571;DHT22;16814;52.118;11.436;2023-04-06T06:25:28;6.50;99.90
29571;DHT22;16814;52.118;11.436;2023-04-06T06:27:56;6.70;99.90
29571;DHT22;16814;52.118;11.436;2023-04-06T06:30:21;6.90;99.90
29571;DHT22;16814;52.118;11.436;2023-04-06T06:32:47;7.00;99.90
29571;DHT22;16814;52.118;11.436;2023-04-06T06:35:12;7.00;99.90
29571;DHT22;16814;52.118;11.436;2023-04-06T06:37:38;7.10;99.90
29571;DHT22;16814;52.118;11.436;2023-04-06T06:40:04;7.30;99.90
29571;DHT22;16814;52.118;11.436;2023-04-06T06:42:30;8.00;99.90
29571;DHT22;16814;52.118;11.436;2023-04-06T06:44:55;8.50;99.90
29571;DHT22;16814;52.118;11.436;2023-04-06T06:47:21;8.70;99.90
29571;DHT22;16814;52.118;11.436;2023-04-06T06:49:47;8.20;99.90
29571;DHT22;16814;52.118;11.436;2023-04-06T06:52:12;8.50;99.90
29571;DHT22;16814;52.118;11.436;2023-04-06T06:54:38;9.40;99.90
29571;DHT22;16814;52.118;11.436;2023-04-06T06:57:03;10.30;99.90
29571;DHT22;16814;52.118;11.436;2023-04-06T06:59:30;11.00;99.90
29571;DHT22;16814;52.118;11.436;2023-04-06T07:01:55;11.60;99.90
29571;DHT22;16814;52.118;11.436;2023-04-06T07:04:21;12.20;99.20
29571;DHT22;16814;52.118;11.436;2023-04-06T07:06:47;11.70;98.60
29571;DHT22;16814;52.118;11.436;2023-04-06T07:09:12;11.60;98.80
29571;DHT22;16814;52.118;11.436;2023-04-06T07:11:38;11.80;99.40
29571;DHT22;16814;52.118;11.436;2023-04-06T07:14:03;11.70;98.40
29571;DHT22;16814;52.118;11.436;2023-04-06T07:16:29;11.80;99.10
29571;DHT22;16814;52.118;11.436;2023-04-06T07:18:55;11.40;96.80
29571;DHT22;16814;52.118;11.436;2023-04-06T07:21:21;10.50;98.60
29571;DHT22;16814;52.118;11.436;2023-04-06T07:23:46;10.20;99.90
29571;DHT22;16814;52.118;11.436;2023-04-06T07:26:13;10.30;99.90
29571;DHT22;16814;52.118;11.436;2023-04-06T07:28:39;10.10;99.90
29571;DHT22;16814;52.118;11.436;2023-04-06T07:31:05;10.30;99.90
29571;DHT22;16814;52.118;11.436;2023-04-06T07:33:30;10.40;99.90
29571;DHT22;16814;52.118;11.436;2023-04-06T07:35:56;10.00;99.90
29571;DHT22;16814;52.118;11.436;2023-04-06T07:38:23;9.40;99.90
29571;DHT22;16814;52.118;11.436;2023-04-06T07:40:49;9.10;99.90
29571;DHT22;16814;52.118;11.436;2023-04-06T07:43:14;8.70;99.90
29571;DHT22;16814;52.118;11.436;2023-04-06T07:45:41;8.40;99.90
29571;DHT22;16814;52.118;11.436;2023-04-06T07:48:06;8.10;99.90
29571;DHT22;16814;52.118;11.436;2023-04-06T07:50:32;8.10;99.90
29571;DHT22;16814;52.118;11.436;2023-04-06T07:52:57;8.20;99.90
29571;DHT22;16814;52.118;11.436;2023-04-06T07:55:23;8.20;99.90
29571;DHT22;16814;52.118;11.436;2023-04-06T07:57:48;8.50;99.90
29571;DHT22;16814;52.118;11.436;2023-04-06T08:00:14;8.60;99.90
29571;DHT22;16814;52.118;11.436;2023-04-06T08:02:40;8.50;99.90
29571;DHT22;16814;52.118;11.436;2023-04-06T08:05:06;8.40;99.90
29571;DHT22;16814;52.118;11.436;2023-04-06T08:07:32;8.50;99.90
29571;DHT22;16814;52.118;11.436;2023-04-06T08:09:57;8.90;99.90
29571;DHT22;16814;52.118;11.436;2023-04-06T08:12:23;9.30;99.90
29571;DHT22;16814;52.118;11.436;2023-04-06T08:14:49;9.50;99.90
29571;DHT22;16814;52.118;11.436;2023-04-06T08:17:14;9.10;99.90
29571;DHT22;16814;52.118;11.436;2023-04-06T08:19:42;8.90;99.90
29571;DHT22;16814;52.118;11.436;2023-04-06T08:22:09;9.20;99.90
29571;DHT22;16814;52.118;11.436;2023-04-06T08:24:35;9.50;99.90
29571;DHT22;16814;52.118;11.436;2023-04-06T08:27:00;9.80;99.90
29571;DHT22;16814;52.118;11.436;2023-04-06T08:29:26;9.80;99.90
29571;DHT22;16814;52.118;11.436;2023-04-06T08:31:51;9.80;99.90
29571;DHT22;16814;52.118;11.436;2023-04-06T08:34:17;9.80;99.90
29571;DHT22;16814;52.118;11.436;2023-04-06T08:36:42;9.90;99.90
29571;DHT22;16814;52.118;11.436;2023-04-06T08:39:08;9.70;99.90
29571;DHT22;16814;52.118;11.436;2023-04-06T08:41:34;10.00;99.90
29571;DHT22;16814;52.118;11.436;2023-04-06T08:44:01;10.40;99.90
29571;DHT22;16814;52.118;11.436;2023-04-06T08:46:29;10.70;99.90
29571;DHT22;16814;52.118;11.436;2023-04-06T08:49:00;10.50;99.90
29571;DHT22;16814;52.118;11.436;2023-04-06T08:51:27;10.30;99.90
29571;DHT22;16814;52.118;11.436;2023-04-06T08:53:54;10.10;99.90
29571;DHT22;16814;52.118;11.436;2023-04-06T08:56:23;10.00;99.90
29571;DHT22;16814;52.118;11.436;2023-04-06T08:58:49;10.20;99.90
29571;DHT22;16814;52.118;11.436;2023-04-06T09:01:18;10.60;99.90
29571;DHT22;16814;52.118;11.436;2023-04-06T09:03:46;10.50;99.90
29571;DHT22;16814;52.118;11.436;2023-04-06T09:06:14;10.90;99.90
29571;DHT22;16814;52.118;11.436;2023-04-06T09:08:41;10.60;99.80
29571;DHT22;16814;52.118;11.436;2023-04-06T09:11:07;10.70;99.40
29571;DHT22;16814;52.118;11.436;2023-04-06T09:13:54;10.70;99.90
29571;DHT22;16814;52.118;11.436;2023-04-06T09:16:20;10.70;99.10
29571;DHT22;16814;52.118;11.436;2023-04-06T09:18:46;10.70;99.90
29571;DHT22;16814;52.118;11.436;2023-04-06T09:21:12;10.70;99.70
29571;DHT22;16814;52.118;11.436;2023-04-06T09:23:38;10.90;99.90
29571;DHT22;16814;52.118;11.436;2023-04-06T09:26:09;11.20;97.40
29571;DHT22;16814;52.118;11.436;2023-04-06T09:31:14;11.20;99.50
29571;DHT22;16814;52.118;11.436;2023-04-06T09:33:41;11.30;98.00
29571;DHT22;16814;52.118;11.436;2023-04-06T09:36:07;11.60;97.50
29571;DHT22;16814;52.118;11.436;2023-04-06T09:38:36;11.70;96.30
29571;DHT22;16814;52.118;11.436;2023-04-06T09:41:02;12.20;96.80
29571;DHT22;16814;52.118;11.436;2023-04-06T09:43:28;12.00;94.00
29571;DHT22;16814;52.118;11.436;2023-04-06T09:45:55;11.90;95.00
29571;DHT22;16814;52.118;11.436;2023-04-06T09:48:21;12.00;95.10
29571;DHT22;16814;52.118;11.436;2023-04-06T09:50:49;12.30;95.40
29571;DHT22;16814;52.118;11.436;2023-04-06T09:53:18;12.20;94.70
29571;DHT22;16814;52.118;11.436;2023-04-06T09:55:45;12.30;95.30
29571;DHT22;16814;52.118;11.436;2023-04-06T09:58:16;12.40;96.20
29571;DHT22;16814;52.118;11.436;2023-04-06T10:01:03;12.60;94.70
29571;DHT22;16814;52.118;11.436;2023-04-06T10:06:11;12.70;91.40
29571;DHT22;16814;52.118;11.436;2023-04-06T10:08:40;13.10;93.10
29571;DHT22;16814;52.118;11.436;2023-04-06T10:11:07;13.40;91.20
29571;DHT22;16814;52.118;11.436;2023-04-06T10:13:34;13.50;88.60
29571;DHT22;16814;52.118;11.436;2023-04-06T10:16:00;13.60;90.00
29571;DHT22;16814;52.118;11.436;2023-04-06T10:18:27;13.70;90.60
29571;DHT22;16814;52.118;11.436;2023-04-06T10:21:12;13.80;88.50
29571;DHT22;16814;52.118;11.436;2023-04-06T10:23:48;13.80;86.00
29571;DHT22;16814;52.118;11.436;2023-04-06T10:26:16;14.00;86.30
29571;DHT22;16814;52.118;11.436;2023-04-06T10:28:43;13.50;83.30
29571;DHT22;16814;52.118;11.436;2023-04-06T10:31:09;13.10;87.00
29571;DHT22;16814;52.118;11.436;2023-04-06T10:33:35;12.70;84.30
29571;DHT22;16814;52.118;11.436;2023-04-06T10:36:15;12.40;86.90
29571;DHT22;16814;52.118;11.436;2023-04-06T10:38:46;12.40;88.80
29571;DHT22;16814;52.118;11.436;2023-04-06T10:41:12;12.50;90.00
29571;DHT22;16814;52.118;11.436;2023-04-06T10:43:40;12.90;87.90
29571;DHT22;16814;52.118;11.436;2023-04-06T10:46:08;13.00;87.30
29571;DHT22;16814;52.118;11.436;2023-04-06T10:48:40;13.20;85.20
29571;DHT22;16814;52.118;11.436;2023-04-06T10:51:16;13.50;86.30
29571;DHT22;16814;52.118;11.436;2023-04-06T10:53:42;13.90;84.60
29571;DHT22;16814;52.118;11.436;2023-04-06T10:56:16;13.70;82.20
29571;DHT22;16814;52.118;11.436;2023-04-06T10:58:47;13.30;80.20
29571;DHT22;16814;52.118;11.436;2023-04-06T11:01:19;13.40;80.50
29571;DHT22;16814;52.118;11.436;2023-04-06T11:03:52;13.00;81.60
29571;DHT22;16814;52.118;11.436;2023-04-06T11:06:22;12.60;83.00
29571;DHT22;16814;52.118;11.436;2023-04-06T11:08:48;12.70;84.90
29571;DHT22;16814;52.118;11.436;2023-04-06T11:11:15;12.80;80.80
29571;DHT22;16814;52.118;11.436;2023-04-06T11:13:50;12.90;83.60
29571;DHT22;16814;52.118;11.436;2023-04-06T11:16:21;13.00;82.00
29571;DHT22;16814;52.118;11.436;2023-04-06T11:18:57;13.20;83.30
29571;DHT22;16814;52.118;11.436;2023-04-06T11:21:40;13.30;79.20
29571;DHT22;16814;52.118;11.436;2023-04-06T11:24:12;13.70;82.40
29571;DHT22;16814;52.118;11.436;2023-04-06T11:26:46;14.00;80.90
29571;DHT22;16814;52.118;11.436;2023-04-06T11:29:15;14.10;77.90
29571;DHT22;16814;52.118;11.436;2023-04-06T11:31:52;14.50;76.60
29571;DHT22;16814;52.118;11.436;2023-04-06T11:34:22;14.20;76.50
29571;DHT22;16814;52.118;11.436;2023-04-06T11:36:53;14.40;78.70
29571;DHT22;16814;52.118;11.436;2023-04-06T11:39:23;14.60;78.70
29571;DHT22;16814;52.118;11.436;2023-04-06T11:42:01;14.60;78.20
29571;DHT22;16814;52.118;11.436;2023-04-06T11:44:35;14.50;73.50
29571;DHT22;16814;52.118;11.436;2023-04-06T11:47:06;14.60;77.70
29571;DHT22;16814;52.118;11.436;2023-04-06T11:49:33;14.40;75.80
29571;DHT22;16814;52.118;11.436;2023-04-06T11:52:01;14.10;76.20
29571;DHT22;16814;52.118;11.436;2023-04-06T11:54:35;14.10;76.00
29571;DHT22;16814;52.118;11.436;2023-04-06T11:57:01;14.00;77.90
29571;DHT22;16814;52.118;11.436;2023-04-06T11:59:29;13.90;73.50
29571;DHT22;16814;52.118;11.436;2023-04-06T12:01:55;14.00;77.00
29571;DHT22;16814;52.118;11.436;2023-04-06T12:04:21;14.00;78.20
29571;DHT22;16814;52.118;11.436;2023-04-06T12:06:46;13.90;75.40
29571;DHT22;16814;52.118;11.436;2023-04-06T12:09:12;13.70;77.70
29571;DHT22;16814;52.118;11.436;2023-04-06T12:11:37;13.70;77.00
29571;DHT22;16814;52.118;11.436;2023-04-06T12:14:04;13.70;75.50
29571;DHT22;16814;52.118;11.436;2023-04-06T12:16:31;13.60;77.50
29571;DHT22;16814;52.118;11.436;2023-04-06T12:18:57;13.40;76.10
29571;DHT22;16814;52.118;11.436;2023-04-06T12:21:22;13.10;75.30
29571;DHT22;16814;52.118;11.436;2023-04-06T12:23:48;12.40;76.20
29571;DHT22;16814;52.118;11.436;2023-04-06T12:26:13;12.30;79.30
29571;DHT22;16814;52.118;11.436;2023-04-06T12:28:39;12.60;79.90
29571;DHT22;16814;52.118;11.436;2023-04-06T12:31:05;12.90;76.40
29571;DHT22;16814;52.118;11.436;2023-04-06T12:33:30;13.00;76.30
29571;DHT22;16814;52.118;11.436;2023-04-06T12:35:56;13.30;76.90
29571;DHT22;16814;52.118;11.436;2023-04-06T12:38:21;13.50;75.30
29571;DHT22;16814;52.118;11.436;2023-04-06T12:40:47;13.80;76.80
29571;DHT22;16814;52.118;11.436;2023-04-06T12:43:12;13.70;72.90
29571;DHT22;16814;52.118;11.436;2023-04-06T12:45:39;13.30;72.50
29571;DHT22;16814;52.118;11.436;2023-04-06T12:48:06;12.80;73.20
29571;DHT22;16814;52.118;11.436;2023-04-06T12:50:32;12.50;73.00
29571;DHT22;16814;52.118;11.436;2023-04-06T12:52:57;12.60;75.50
29571;DHT22;16814;52.118;11.436;2023-04-06T12:55:23;12.80;75.60
29571;DHT22;16814;52.118;11.436;2023-04-06T12:57:48;13.00;76.60
29571;DHT22;16814;52.118;11.436;2023-04-06T13:00:15;13.10;76.60
29571;DHT22;16814;52.118;11.436;2023-04-06T13:02:40;13.30;75.10
29571;DHT22;16814;52.118;11.436;2023-04-06T13:05:12;13.50;74.30
29571;DHT22;16814;52.118;11.436;2023-04-06T13:07:38;13.40;71.80
29571;DHT22;16814;52.118;11.436;2023-04-06T13:10:03;13.70;75.60
29571;DHT22;16814;52.118;11.436;2023-04-06T13:12:29;13.70;71.80
29571;DHT22;16814;52.118;11.436;2023-04-06T13:14:55;13.40;71.50
29571;DHT22;16814;52.118;11.436;2023-04-06T13:17:21;13.10;70.70
29571;DHT22;16814;52.118;11.436;2023-04-06T13:19:46;13.00;72.00
29571;DHT22;16814;52.118;11.436;2023-04-06T13:22:12;13.00;72.80
29571;DHT22;16814;52.118;11.436;2023-04-06T13:24:38;13.10;72.90
29571;DHT22;16814;52.118;11.436;2023-04-06T13:27:04;13.20;71.10
29571;DHT22;16814;52.118;11.436;2023-04-06T13:29:30;13.20;70.00
29571;DHT22;16814;52.118;11.436;2023-04-06T13:31:56;13.20;68.80
29571;DHT22;16814;52.118;11.436;2023-04-06T13:34:21;13.20;69.40
29571;DHT22;16814;52.118;11.436;2023-04-06T13:36:47;13.20;68.80
29571;DHT22;16814;52.118;11.436;2023-04-06T13:39:12;13.10;69.10
29571;DHT22;16814;52.118;11.436;2023-04-06T13:41:38;13.20;70.60
29571;DHT22;16814;52.118;11.436;2023-04-06T13:44:05;13.00;67.70
29571;DHT22;16814;52.118;11.436;2023-04-06T13:46:31;12.90;72.80
29571;DHT22;16814;52.118;11.436;2023-04-06T13:48:56;13.00;73.10
29571;DHT22;16814;52.118;11.436;2023-04-06T13:51:22;13.10;71.80
29571;DHT22;16814;52.118;11.436;2023-04-06T13:53:47;13.30;72.00
29571;DHT22;16814;52.118;11.436;2023-04-06T13:56:15;13.20;68.80
29571;DHT22;16814;52.118;11.436;2023-04-06T13:58:41;13.30;70.50
29571;DHT22;16814;52.118;11.436;2023-04-06T14:01:07;13.40;67.30
29571;DHT22;16814;52.118;11.436;2023-04-06T14:03:35;13.30;69.00
29571;DHT22;16814;52.118;11.436;2023-04-06T14:06:01;13.30;70.50
29571;DHT22;16814;52.118;11.436;2023-04-06T14:08:26;13.30;70.20
29571;DHT22;16814;52.118;11.436;2023-04-06T14:10:52;13.40;71.50
29571;DHT22;16814;52.118;11.436;2023-04-06T14:13:19;13.30;69.60
29571;DHT22;16814;52.118;11.436;2023-04-06T14:15:44;13.20;68.40
29571;DHT22;16814;52.118;11.436;2023-04-06T14:18:10;13.10;68.00
29571;DHT22;16814;52.118;11.436;2023-04-06T14:20:36;13.10;68.30
29571;DHT22;16814;52.118;11.436;2023-04-06T14:23:03;13.00;66.40
29571;DHT22;16814;52.118;11.436;2023-04-06T14:25:29;12.90;69.30
29571;DHT22;16814;52.118;11.436;2023-04-06T14:27:56;12.90;70.30
29571;DHT22;16814;52.118;11.436;2023-04-06T14:30:22;12.90;67.70
29571;DHT22;16814;52.118;11.436;2023-04-06T14:32:48;12.90;67.10
29571;DHT22;16814;52.118;11.436;2023-04-06T14:35:14;12.90;66.90
29571;DHT22;16814;52.118;11.436;2023-04-06T14:37:40;13.00;68.00
29571;DHT22;16814;52.118;11.436;2023-04-06T14:40:06;13.00;66.20
29571;DHT22;16814;52.118;11.436;2023-04-06T14:42:32;13.00;66.00
29571;DHT22;16814;52.118;11.436;2023-04-06T14:45:00;12.90;64.90
29571;DHT22;16814;52.118;11.436;2023-04-06T14:47:25;12.90;68.50
29571;DHT22;16814;52.118;11.436;2023-04-06T14:49:51;12.90;68.60
29571;DHT22;16814;52.118;11.436;2023-04-06T14:52:19;12.90;68.50
29571;DHT22;16814;52.118;11.436;2023-04-06T14:54:45;12.90;72.50
29571;DHT22;16814;52.118;11.436;2023-04-06T14:57:10;13.00;69.90
29571;DHT22;16814;52.118;11.436;2023-04-06T14:59:36;12.90;68.10
29571;DHT22;16814;52.118;11.436;2023-04-06T15:02:02;12.80;68.50
29571;DHT22;16814;52.118;11.436;2023-04-06T15:04:28;12.80;70.50
29571;DHT22;16814;52.118;11.436;2023-04-06T15:06:54;12.80;67.70
29571;DHT22;16814;52.118;11.436;2023-04-06T15:09:20;12.70;68.90
29571;DHT22;16814;52.118;11.436;2023-04-06T15:11:46;12.60;69.60
29571;DHT22;16814;52.118;11.436;2023-04-06T15:14:11;12.70;71.90
29571;DHT22;16814;52.118;11.436;2023-04-06T15:16:37;12.80;71.40
29571;DHT22;16814;52.118;11.436;2023-04-06T15:19:02;12.60;70.10
29571;DHT22;16814;52.118;11.436;2023-04-06T15:21:28;12.50;72.00
29571;DHT22;16814;52.118;11.436;2023-04-06T15:23:54;12.60;69.40